sensor_id;sensor_type;location;lat;lon;timestamp;noise_LAeq;noise_LA_min;noise_LA_max;noise_LA01;noise_LA95
37162;Laerm;68342;52.598;13.450;2023-12-20T00:00:18;42.04;36.90;53.83;;
37162;Laerm;68342;52.598;13.450;2023-12-20T00:02:43;39.05;33.14;53.57;;
37162;Laerm;68342;52.598;13.450;2023-12-20T00:05:12;40.75;33.84;54.91;;
37162;Laerm;68342;52.598;13.450;2023-12-20T00:07:37;41.54;35.18;53.34;;
37162;Laerm;68342;52.598;13.450;2023-12-20T00:10:02;41.93;36.10;55.81;;
37162;Laerm;68342;52.598;13.450;2023-12-20T00:12:28;44.02;39.60;54.53;;
37162;Laerm;68342;52.598;13.450;2023-12-20T00:14:53;44.74;38.99;58.02;;
37162;Laerm;68342;52.598;13.450;2023-12-20T00:17:18;41.31;37.16;55.71;;
37162;Laerm;68342;52.598;13.450;2023-12-20T00:19:43;41.12;36.32;61.08;;
37162;Laerm;68342;52.598;13.450;2023-12-20T00:22:09;39.96;35.72;59.52;;
37162;Laerm;68342;52.598;13.450;2023-12-20T00:24:34;40.93;36.51;51.41;;
37162;Laerm;68342;52.598;13.450;2023-12-20T00:26:59;41.69;36.90;55.68;;
37162;Laerm;68342;52.598;13.450;2023-12-20T00:29:25;40.30;35.61;54.37;;
37162;Laerm;68342;52.598;13.450;2023-12-20T00:31:50;41.77;36.53;52.46;;
37162;Laerm;68342;52.598;13.450;2023-12-20T00:34:15;41.87;36.54;64.17;;
37162;Laerm;68342;52.598;13.450;2023-12-20T00:36:40;40.32;34.46;55.01;;
37162;Laerm;68342;52.598;13.450;2023-12-20T00:39:06;40.91;34.39;52.31;;
37162;Laerm;68342;52.598;13.450;2023-12-20T00:41:32;39.61;34.27;55.78;;
37162;Laerm;68342;52.598;13.450;2023-12-20T00:43:57;40.98;35.08;59.34;;
37162;Laerm;68342;52.598;13.450;2023-12-20T00:46:22;40.27;35.67;50.43;;
37162;Laerm;68342;52.598;13.450;2023-12-20T00:48:48;41.26;34.20;55.18;;
37162;Laerm;68342;52.598;13.450;2023-12-20T00:51:13;40.92;34.58;56.20;;
37162;Laerm;68342;52.598;13.450;2023-12-20T00:53:38;41.80;36.13;51.44;;
37162;Laerm;68342;52.598;13.450;2023-12-20T00:56:03;39.75;34.08;54.62;;
37162;Laerm;68342;52.598;13.450;2023-12-20T00:58:29;40.28;33.13;55.96;;
37162;Laerm;68342;52.598;13.450;2023-12-20T01:00:54;40.11;32.56;55.89;;
37162;Laerm;68342;52.598;13.450;2023-12-20T01:03:20;45.99;33.59;55.54;;
37162;Laerm;68342;52.598;13.450;2023-12-20T01:05:45;39.29;31.84;54.24;;
37162;Laerm;68342;52.598;13.450;2023-12-20T01:08:10;41.89;35.16;52.52;;
37162;Laerm;68342;52.598;13.450;2023-12-20T01:10:36;38.68;31.72;58.86;;
37162;Laerm;68342;52.598;13.450;2023-12-20T01:13:01;39.24;31.57;54.95;;
37162;Laerm;68342;52.598;13.450;2023-12-20T01:15:26;41.62;34.40;51.80;;
37162;Laerm;68342;52.598;13.450;2023-12-20T01:17:51;40.61;33.96;55.09;;
37162;Laerm;68342;52.598;13.450;2023-12-20T01:20:17;40.88;33.75;53.68;;
37162;Laerm;68342;52.598;13.450;2023-12-20T01:22:42;42.73;34.81;58.41;;
37162;Laerm;68342;52.598;13.450;2023-12-20T01:25:08;39.89;33.18;51.81;;
37162;Laerm;68342;52.598;13.450;2023-12-20T01:27:33;40.73;32.81;52.49;;
37162;Laerm;68342;52.598;13.450;2023-12-20T01:29:58;39.57;32.30;58.25;;
37162;Laerm;68342;52.598;13.450;2023-12-20T01:32:23;39.46;33.36;57.25;;
37162;Laerm;68342;52.598;13.450;2023-12-20T01:34:49;39.35;33.26;51.84;;
37162;Laerm;68342;52.598;13.450;2023-12-20T01:37:14;41.01;34.02;54.88;;
37162;Laerm;68342;52.598;13.450;2023-12-20T01:39:39;40.46;34.90;53.86;;
37162;Laerm;68342;52.598;13.450;2023-12-20T01:42:05;43.50;35.58;54.64;;
37162;Laerm;68342;52.598;13.450;2023-12-20T01:44:30;42.38;36.56;54.33;;
37162;Laerm;68342;52.598;13.450;2023-12-20T01:46:55;41.21;34.93;52.35;;
37162;Laerm;68342;52.598;13.450;2023-12-20T01:49:21;39.36;33.19;52.27;;
37162;Laerm;68342;52.598;13.450;2023-12-20T01:51:46;41.25;33.14;54.77;;
37162;Laerm;68342;52.598;13.450;2023-12-20T01:54:12;39.95;33.46;57.02;;
37162;Laerm;68342;52.598;13.450;2023-12-20T01:56:38;38.15;30.87;51.55;;
37162;Laerm;68342;52.598;13.450;2023-12-20T01:59:04;39.57;32.20;53.03;;
37162;Laerm;68342;52.598;13.450;2023-12-20T02:01:30;39.49;33.85;56.28;;
37162;Laerm;68342;52.598;13.450;2023-12-20T02:03:55;39.40;33.75;56.20;;
37162;Laerm;68342;52.598;13.450;2023-12-20T02:06:21;40.68;35.35;57.82;;
37162;Laerm;68342;52.598;13.450;2023-12-20T02:08:48;38.86;32.34;50.47;;
37162;Laerm;68342;52.598;13.450;2023-12-20T02:11:14;39.81;32.94;54.24;;
37162;Laerm;68342;52.598;13.450;2023-12-20T02:13:40;39.11;32.87;54.54;;
37162;Laerm;68342;52.598;13.450;2023-12-20T02:16:05;39.43;32.23;53.23;;
37162;Laerm;68342;52.598;13.450;2023-12-20T02:18:32;40.62;32.63;56.79;;
37162;Laerm;68342;52.598;13.450;2023-12-20T02:20:57;39.83;33.55;54.90;;
37162;Laerm;68342;52.598;13.450;2023-12-20T02:23:23;41.40;36.72;52.70;;
37162;Laerm;68342;52.598;13.450;2023-12-20T02:25:48;47.56;34.86;60.63;;
37162;Laerm;68342;52.598;13.450;2023-12-20T02:28:13;38.31;31.86;54.85;;
37162;Laerm;68342;52.598;13.450;2023-12-20T02:30:39;41.00;35.85;51.93;;
37162;Laerm;68342;52.598;13.450;2023-12-20T02:33:05;40.28;33.29;56.15;;
37162;Laerm;68342;52.598;13.450;2023-12-20T02:35:32;39.45;33.82;54.55;;
37162;Laerm;68342;52.598;13.450;2023-12-20T02:37:57;39.53;32.70;53.73;;
37162;Laerm;68342;52.598;13.450;2023-12-20T02:40:23;38.40;32.17;57.55;;
37162;Laerm;68342;52.598;13.450;2023-12-20T02:42:48;40.43;33.09;59.28;;
37162;Laerm;68342;52.598;13.450;2023-12-20T02:45:14;41.91;36.14;56.27;;
37162;Laerm;68342;52.598;13.450;2023-12-20T02:47:39;38.87;33.48;57.61;;
37162;Laerm;68342;52.598;13.450;2023-12-20T02:50:04;39.40;33.99;56.41;;
37162;Laerm;68342;52.598;13.450;2023-12-20T02:52:30;40.13;33.97;53.86;;
37162;Laerm;68342;52.598;13.450;2023-12-20T02:54:55;38.23;32.13;52.28;;
37162;Laerm;68342;52.598;13.450;2023-12-20T02:57:20;40.07;33.89;53.12;;
37162;Laerm;68342;52.598;13.450;2023-12-20T02:59:46;40.86;34.11;55.82;;
37162;Laerm;68342;52.598;13.450;2023-12-20T03:02:11;38.56;33.38;54.45;;
37162;Laerm;68342;52.598;13.450;2023-12-20T03:04:36;43.53;37.30;56.81;;
37162;Laerm;68342;52.598;13.450;2023-12-20T03:07:02;41.13;33.82;55.93;;
37162;Laerm;68342;52.598;13.450;2023-12-20T03:09:28;42.09;34.06;64.02;;
37162;Laerm;68342;52.598;13.450;2023-12-20T03:11:53;42.30;34.63;54.86;;
37162;Laerm;68342;52.598;13.450;2023-12-20T03:14:18;41.89;35.88;58.35;;
37162;Laerm;68342;52.598;13.450;2023-12-20T03:16:49;41.96;35.87;55.43;;
37162;Laerm;68342;52.598;13.450;2023-12-20T03:19:14;41.91;36.53;52.10;;
37162;Laerm;68342;52.598;13.450;2023-12-20T03:21:40;42.85;37.70;53.56;;
37162;Laerm;68342;52.598;13.450;2023-12-20T03:24:05;42.66;37.45;55.22;;
37162;Laerm;68342;52.598;13.450;2023-12-20T03:26:30;46.28;38.46;53.16;;
37162;Laerm;68342;52.598;13.450;2023-12-20T03:28:55;45.31;39.01;54.77;;
37162;Laerm;68342;52.598;13.450;2023-12-20T03:31:21;43.93;38.55;53.35;;
37162;Laerm;68342;52.598;13.450;2023-12-20T03:33:46;44.46;39.35;53.43;;
37162;Laerm;68342;52.598;13.450;2023-12-20T03:36:12;44.48;37.24;52.89;;
37162;Laerm;68342;52.598;13.450;2023-12-20T03:38:37;44.90;38.66;55.55;;
37162;Laerm;68342;52.598;13.450;2023-12-20T03:41:02;44.83;39.09;58.01;;
37162;Laerm;68342;52.598;13.450;2023-12-20T03:43:28;44.10;39.51;55.23;;
37162;Laerm;68342;52.598;13.450;2023-12-20T03:45:53;43.57;38.08;51.88;;
37162;Laerm;68342;52.598;13.450;2023-12-20T03:48:18;44.36;40.61;54.21;;
37162;Laerm;68342;52.598;13.450;2023-12-20T03:50:47;44.99;40.25;54.64;;
37162;Laerm;68342;52.598;13.450;2023-12-20T03:53:12;44.32;38.08;59.68;;
37162;Laerm;68342;52.598;13.450;2023-12-20T03:55:37;44.84;39.51;56.67;;
37162;Laerm;68342;52.598;13.450;2023-12-20T03:58:03;45.51;39.03;55.96;;
37162;Laerm;68342;52.598;13.450;2023-12-20T04:00:28;42.91;38.51;55.61;;
37162;Laerm;68342;52.598;13.450;2023-12-20T04:02:54;44.25;38.46;55.54;;
37162;Laerm;68342;52.598;13.450;2023-12-20T04:05:19;46.17;40.01;56.52;;
37162;Laerm;68342;52.598;13.450;2023-12-20T04:07:44;45.60;42.32;53.07;;
37162;Laerm;68342;52.598;13.450;2023-12-20T04:10:10;45.75;41.53;59.07;;
37162;Laerm;68342;52.598;13.450;2023-12-20T04:12:35;45.19;41.18;54.17;;
37162;Laerm;68342;52.598;13.450;2023-12-20T04:15:00;45.95;40.68;53.77;;
37162;Laerm;68342;52.598;13.450;2023-12-20T04:17:25;46.66;42.57;54.74;;
37162;Laerm;68342;52.598;13.450;2023-12-20T04:19:51;47.45;43.24;55.32;;
37162;Laerm;68342;52.598;13.450;2023-12-20T04:22:17;49.49;40.89;63.53;;
37162;Laerm;68342;52.598;13.450;2023-12-20T04:24:42;46.42;41.52;58.29;;
37162;Laerm;68342;52.598;13.450;2023-12-20T04:27:07;46.70;42.96;53.75;;
37162;Laerm;68342;52.598;13.450;2023-12-20T04:29:33;47.45;42.88;55.38;;
37162;Laerm;68342;52.598;13.450;2023-12-20T04:31:58;46.92;42.81;52.54;;
37162;Laerm;68342;52.598;13.450;2023-12-20T04:34:23;47.97;42.68;56.14;;
37162;Laerm;68342;52.598;13.450;2023-12-20T04:36:49;49.09;45.07;54.03;;
37162;Laerm;68342;52.598;13.450;2023-12-20T04:39:14;48.29;44.04;57.60;;
37162;Laerm;68342;52.598;13.450;2023-12-20T04:41:42;47.56;42.67;55.95;;
37162;Laerm;68342;52.598;13.450;2023-12-20T04:44:08;49.41;44.37;62.74;;
37162;Laerm;68342;52.598;13.450;2023-12-20T04:46:33;48.05;42.57;55.84;;
37162;Laerm;68342;52.598;13.450;2023-12-20T04:48:58;49.28;45.36;56.70;;
37162;Laerm;68342;52.598;13.450;2023-12-20T04:51:23;46.78;43.07;57.93;;
37162;Laerm;68342;52.598;13.450;2023-12-20T04:53:49;48.05;44.42;53.45;;
37162;Laerm;68342;52.598;13.450;2023-12-20T04:56:14;49.12;45.50;55.95;;
37162;Laerm;68342;52.598;13.450;2023-12-20T04:58:39;48.97;45.32;55.14;;
37162;Laerm;68342;52.598;13.450;2023-12-20T05:01:07;48.17;43.41;55.21;;
37162;Laerm;68342;52.598;13.450;2023-12-20T05:03:33;48.57;44.28;56.66;;
37162;Laerm;68342;52.598;13.450;2023-12-20T05:05:58;48.40;43.78;60.06;;
37162;Laerm;68342;52.598;13.450;2023-12-20T05:08:23;48.97;45.14;56.18;;
37162;Laerm;68342;52.598;13.450;2023-12-20T05:10:53;49.44;45.39;56.21;;
37162;Laerm;68342;52.598;13.450;2023-12-20T05:13:19;49.15;44.59;56.53;;
37162;Laerm;68342;52.598;13.450;2023-12-20T05:15:44;49.30;45.99;56.08;;
37162;Laerm;68342;52.598;13.450;2023-12-20T05:18:09;49.09;44.72;55.94;;
37162;Laerm;68342;52.598;13.450;2023-12-20T05:20:35;48.55;44.24;57.42;;
37162;Laerm;68342;52.598;13.450;2023-12-20T05:23:00;50.03;45.73;59.11;;
37162;Laerm;68342;52.598;13.450;2023-12-20T05:25:25;49.73;45.80;55.61;;
37162;Laerm;68342;52.598;13.450;2023-12-20T05:27:50;50.14;47.13;55.59;;
37162;Laerm;68342;52.598;13.450;2023-12-20T05:30:16;50.26;46.47;56.83;;
37162;Laerm;68342;52.598;13.450;2023-12-20T05:32:41;50.95;46.84;57.03;;
37162;Laerm;68342;52.598;13.450;2023-12-20T05:35:06;51.02;47.39;56.51;;
37162;Laerm;68342;52.598;13.450;2023-12-20T05:37:32;51.06;46.14;60.20;;
37162;Laerm;68342;52.598;13.450;2023-12-20T05:39:57;51.03;46.54;57.08;;
37162;Laerm;68342;52.598;13.450;2023-12-20T05:42:22;50.35;45.23;55.60;;
37162;Laerm;68342;52.598;13.450;2023-12-20T05:44:48;50.57;45.45;57.53;;
37162;Laerm;68342;52.598;13.450;2023-12-20T05:47:13;49.12;45.71;57.82;;
37162;Laerm;68342;52.598;13.450;2023-12-20T05:49:39;49.62;44.86;56.61;;
37162;Laerm;68342;52.598;13.450;2023-12-20T05:52:04;49.43;45.05;55.03;;
37162;Laerm;68342;52.598;13.450;2023-12-20T05:54:29;50.53;46.31;58.08;;
37162;Laerm;68342;52.598;13.450;2023-12-20T05:56:55;49.57;45.59;57.77;;
37162;Laerm;68342;52.598;13.450;2023-12-20T05:59:20;50.04;46.24;56.31;;
37162;Laerm;68342;52.598;13.450;2023-12-20T06:01:45;50.49;46.97;57.02;;
37162;Laerm;68342;52.598;13.450;2023-12-20T06:04:10;50.62;46.05;58.69;;
37162;Laerm;68342;52.598;13.450;2023-12-20T06:06:40;50.30;46.16;55.64;;
37162;Laerm;68342;52.598;13.450;2023-12-20T06:09:06;50.26;45.13;57.33;;
37162;Laerm;68342;52.598;13.450;2023-12-20T06:11:31;50.49;46.40;58.12;;
37162;Laerm;68342;52.598;13.450;2023-12-20T06:13:56;49.06;44.85;56.32;;
37162;Laerm;68342;52.598;13.450;2023-12-20T06:16:21;50.18;45.22;56.71;;
37162;Laerm;68342;52.598;13.450;2023-12-20T06:18:47;50.95;46.57;57.45;;
37162;Laerm;68342;52.598;13.450;2023-12-20T06:21:12;51.26;46.99;58.35;;
37162;Laerm;68342;52.598;13.450;2023-12-20T06:23:38;49.99;45.78;55.40;;
37162;Laerm;68342;52.598;13.450;2023-12-20T06:26:03;50.68;45.52;55.82;;
37162;Laerm;68342;52.598;13.450;2023-12-20T06:28:28;51.17;46.98;58.11;;
37162;Laerm;68342;52.598;13.450;2023-12-20T06:30:54;49.96;46.26;63.08;;
37162;Laerm;68342;52.598;13.450;2023-12-20T06:33:20;51.04;46.41;59.23;;
37162;Laerm;68342;52.598;13.450;2023-12-20T06:35:47;50.23;45.70;56.24;;
37162;Laerm;68342;52.598;13.450;2023-12-20T06:38:12;50.30;45.45;56.68;;
37162;Laerm;68342;52.598;13.450;2023-12-20T06:40:37;50.59;46.96;55.26;;
37162;Laerm;68342;52.598;13.450;2023-12-20T06:43:02;50.69;46.39;59.17;;
37162;Laerm;68342;52.598;13.450;2023-12-20T06:45:28;50.82;47.18;57.84;;
37162;Laerm;68342;52.598;13.450;2023-12-20T06:47:53;50.33;46.29;57.29;;
37162;Laerm;68342;52.598;13.450;2023-12-20T06:50:19;50.35;45.32;57.87;;
37162;Laerm;68342;52.598;13.450;2023-12-20T06:52:45;50.93;44.89;59.88;;
37162;Laerm;68342;52.598;13.450;2023-12-20T06:55:10;49.73;44.34;63.13;;
37162;Laerm;68342;52.598;13.450;2023-12-20T06:57:36;52.06;47.21;60.32;;
37162;Laerm;68342;52.598;13.450;2023-12-20T07:00:02;50.08;46.35;61.17;;
37162;Laerm;68342;52.598;13.450;2023-12-20T07:02:27;50.82;45.73;59.51;;
37162;Laerm;68342;52.598;13.450;2023-12-20T07:04:55;50.35;45.22;57.64;;
37162;Laerm;68342;52.598;13.450;2023-12-20T07:07:20;49.54;45.31;55.46;;
37162;Laerm;68342;52.598;13.450;2023-12-20T07:09:46;50.39;46.29;61.95;;
37162;Laerm;68342;52.598;13.450;2023-12-20T07:12:11;51.58;46.07;57.93;;
37162;Laerm;68342;52.598;13.450;2023-12-20T07:14:36;50.30;44.73;59.98;;
37162;Laerm;68342;52.598;13.450;2023-12-20T07:17:02;51.47;44.64;62.98;;
37162;Laerm;68342;52.598;13.450;2023-12-20T07:19:27;51.97;45.95;61.24;;
37162;Laerm;68342;52.598;13.450;2023-12-20T07:21:53;52.12;47.10;62.79;;
37162;Laerm;68342;52.598;13.450;2023-12-20T07:24:18;51.03;45.57;59.78;;
37162;Laerm;68342;52.598;13.450;2023-12-20T07:26:43;51.10;46.19;60.02;;
37162;Laerm;68342;52.598;13.450;2023-12-20T07:29:08;50.35;45.61;55.78;;
37162;Laerm;68342;52.598;13.450;2023-12-20T07:31:34;50.20;45.32;62.61;;
37162;Laerm;68342;52.598;13.450;2023-12-20T07:34:03;49.94;46.12;54.16;;
37162;Laerm;68342;52.598;13.450;2023-12-20T07:36:28;50.99;46.36;61.63;;
37162;Laerm;68342;52.598;13.450;2023-12-20T07:38:53;51.78;46.53;64.46;;
37162;Laerm;68342;52.598;13.450;2023-12-20T07:41:19;51.31;47.45;57.23;;
37162;Laerm;68342;52.598;13.450;2023-12-20T07:43:46;51.28;46.66;59.54;;
37162;Laerm;68342;52.598;13.450;2023-12-20T07:46:11;51.93;46.63;60.68;;
37162;Laerm;68342;52.598;13.450;2023-12-20T07:48:37;51.16;46.71;64.01;;
37162;Laerm;68342;52.598;13.450;2023-12-20T07:51:03;51.92;46.94;60.48;;
37162;Laerm;68342;52.598;13.450;2023-12-20T07:53:29;50.92;45.44;59.23;;
37162;Laerm;68342;52.598;13.450;2023-12-20T07:55:54;51.84;45.87;64.23;;
37162;Laerm;68342;52.598;13.450;2023-12-20T07:58:20;50.76;45.47;63.48;;
37162;Laerm;68342;52.598;13.450;2023-12-20T08:00:45;50.16;46.01;58.40;;
37162;Laerm;68342;52.598;13.450;2023-12-20T08:03:10;51.10;46.43;58.19;;
37162;Laerm;68342;52.598;13.450;2023-12-20T08:05:36;51.15;46.97;68.57;;
37162;Laerm;68342;52.598;13.450;2023-12-20T08:08:02;50.04;45.81;59.41;;
37162;Laerm;68342;52.598;13.450;2023-12-20T08:10:27;49.79;44.13;62.41;;
37162;Laerm;68342;52.598;13.450;2023-12-20T08:12:55;52.12;45.61;64.75;;
37162;Laerm;68342;52.598;13.450;2023-12-20T08:15:20;51.18;46.36;62.95;;
37162;Laerm;68342;52.598;13.450;2023-12-20T08:17:45;51.47;46.56;63.18;;
37162;Laerm;68342;52.598;13.450;2023-12-20T08:20:10;49.02;44.65;59.06;;
37162;Laerm;68342;52.598;13.450;2023-12-20T08:22:36;49.72;44.87;61.31;;
37162;Laerm;68342;52.598;13.450;2023-12-20T08:25:01;51.18;47.32;58.91;;
37162;Laerm;68342;52.598;13.450;2023-12-20T08:27:26;50.35;45.48;63.20;;
37162;Laerm;68342;52.598;13.450;2023-12-20T08:29:52;50.19;45.78;59.34;;
37162;Laerm;68342;52.598;13.450;2023-12-20T08:32:17;51.08;46.31;62.35;;
37162;Laerm;68342;52.598;13.450;2023-12-20T08:34:42;51.17;46.84;60.59;;
37162;Laerm;68342;52.598;13.450;2023-12-20T08:37:08;50.00;45.75;61.07;;
37162;Laerm;68342;52.598;13.450;2023-12-20T08:39:33;50.32;45.79;59.20;;
37162;Laerm;68342;52.598;13.450;2023-12-20T08:41:58;51.75;47.36;62.93;;
37162;Laerm;68342;52.598;13.450;2023-12-20T08:44:24;54.08;46.11;64.46;;
37162;Laerm;68342;52.598;13.450;2023-12-20T08:46:49;51.62;47.91;71.55;;
37162;Laerm;68342;52.598;13.450;2023-12-20T08:49:14;50.44;46.57;57.98;;
37162;Laerm;68342;52.598;13.450;2023-12-20T08:51:39;50.93;46.78;57.28;;
37162;Laerm;68342;52.598;13.450;2023-12-20T08:54:06;52.29;46.04;65.56;;
37162;Laerm;68342;52.598;13.450;2023-12-20T08:56:33;50.89;46.35;67.49;;
37162;Laerm;68342;52.598;13.450;2023-12-20T08:58:58;51.86;45.77;71.74;;
37162;Laerm;68342;52.598;13.450;2023-12-20T09:01:24;49.95;46.00;58.95;;
37162;Laerm;68342;52.598;13.450;2023-12-20T09:03:49;49.19;45.33;55.82;;
37162;Laerm;68342;52.598;13.450;2023-12-20T09:06:14;50.09;45.33;57.52;;
37162;Laerm;68342;52.598;13.450;2023-12-20T09:08:40;50.01;45.57;59.12;;
37162;Laerm;68342;52.598;13.450;2023-12-20T09:11:06;50.30;46.69;66.92;;
37162;Laerm;68342;52.598;13.450;2023-12-20T09:13:31;49.85;45.85;62.52;;
37162;Laerm;68342;52.598;13.450;2023-12-20T09:15:57;51.02;46.17;57.53;;
37162;Laerm;68342;52.598;13.450;2023-12-20T09:18:22;51.47;46.04;63.58;;
37162;Laerm;68342;52.598;13.450;2023-12-20T09:20:48;49.59;45.12;57.49;;
37162;Laerm;68342;52.598;13.450;2023-12-20T09:23:13;50.69;45.01;58.85;;
37162;Laerm;68342;52.598;13.450;2023-12-20T09:25:38;50.31;46.42;58.20;;
37162;Laerm;68342;52.598;13.450;2023-12-20T09:28:04;49.60;45.87;56.39;;
37162;Laerm;68342;52.598;13.450;2023-12-20T09:30:29;50.03;46.14;59.11;;
37162;Laerm;68342;52.598;13.450;2023-12-20T09:32:55;49.57;44.80;64.18;;
37162;Laerm;68342;52.598;13.450;2023-12-20T09:35:20;50.16;46.59;60.94;;
37162;Laerm;68342;52.598;13.450;2023-12-20T09:37:45;50.42;46.03;59.83;;
37162;Laerm;68342;52.598;13.450;2023-12-20T09:40:12;51.81;45.93;64.88;;
37162;Laerm;68342;52.598;13.450;2023-12-20T09:43:02;52.31;47.30;66.56;;
37162;Laerm;68342;52.598;13.450;2023-12-20T09:45:23;51.21;45.93;63.89;;
37162;Laerm;68342;52.598;13.450;2023-12-20T09:47:53;50.32;45.84;56.57;;
37162;Laerm;68342;52.598;13.450;2023-12-20T09:50:19;50.78;45.37;62.03;;
37162;Laerm;68342;52.598;13.450;2023-12-20T09:52:46;51.57;44.81;64.81;;
37162;Laerm;68342;52.598;13.450;2023-12-20T09:55:13;52.28;45.84;63.92;;
37162;Laerm;68342;52.598;13.450;2023-12-20T09:57:39;50.58;45.82;65.15;;
37162;Laerm;68342;52.598;13.450;2023-12-20T10:00:04;50.94;46.28;59.90;;
37162;Laerm;68342;52.598;13.450;2023-12-20T10:02:31;50.67;46.55;63.54;;
37162;Laerm;68342;52.598;13.450;2023-12-20T10:04:57;51.73;46.77;70.22;;
37162;Laerm;68342;52.598;13.450;2023-12-20T10:07:22;50.62;46.29;61.15;;
37162;Laerm;68342;52.598;13.450;2023-12-20T10:09:48;49.68;44.88;65.18;;
37162;Laerm;68342;52.598;13.450;2023-12-20T10:12:13;52.09;47.57;61.85;;
37162;Laerm;68342;52.598;13.450;2023-12-20T10:14:39;50.39;45.94;57.74;;
37162;Laerm;68342;52.598;13.450;2023-12-20T10:17:04;50.28;46.55;58.76;;
37162;Laerm;68342;52.598;13.450;2023-12-20T10:19:31;50.54;46.26;63.27;;
37162;Laerm;68342;52.598;13.450;2023-12-20T10:21:57;50.99;46.31;56.14;;
37162;Laerm;68342;52.598;13.450;2023-12-20T10:24:22;51.06;45.85;64.69;;
37162;Laerm;68342;52.598;13.450;2023-12-20T10:26:47;49.41;45.74;58.78;;
37162;Laerm;68342;52.598;13.450;2023-12-20T10:29:13;51.36;46.77;58.32;;
37162;Laerm;68342;52.598;13.450;2023-12-20T10:31:38;49.66;45.00;65.68;;
37162;Laerm;68342;52.598;13.450;2023-12-20T10:34:06;50.99;45.54;59.00;;
37162;Laerm;68342;52.598;13.450;2023-12-20T10:36:32;50.06;45.25;56.04;;
37162;Laerm;68342;52.598;13.450;2023-12-20T10:38:58;49.61;45.94;62.58;;
37162;Laerm;68342;52.598;13.450;2023-12-20T10:41:27;49.56;44.44;60.74;;
37162;Laerm;68342;52.598;13.450;2023-12-20T10:43:58;49.94;44.60;56.46;;
37162;Laerm;68342;52.598;13.450;2023-12-20T10:46:24;51.04;45.87;62.47;;
37162;Laerm;68342;52.598;13.450;2023-12-20T10:48:51;51.21;44.45;63.11;;
37162;Laerm;68342;52.598;13.450;2023-12-20T10:51:18;49.63;45.61;59.50;;
37162;Laerm;68342;52.598;13.450;2023-12-20T10:53:45;49.47;44.39;61.38;;
37162;Laerm;68342;52.598;13.450;2023-12-20T10:56:12;49.86;44.45;57.64;;
37162;Laerm;68342;52.598;13.450;2023-12-20T10:58:40;49.65;45.42;56.41;;
37162;Laerm;68342;52.598;13.450;2023-12-20T11:01:07;51.36;47.32;56.14;;
37162;Laerm;68342;52.598;13.450;2023-12-20T11:03:34;51.12;46.94;58.17;;
37162;Laerm;68342;52.598;13.450;2023-12-20T11:11:14;50.33;43.62;63.40;;
37162;Laerm;68342;52.598;13.450;2023-12-20T11:13:57;50.60;45.54;62.67;;
37162;Laerm;68342;52.598;13.450;2023-12-20T11:16:26;49.60;45.22;57.36;;
37162;Laerm;68342;52.598;13.450;2023-12-20T11:18:56;51.88;47.23;64.15;;
37162;Laerm;68342;52.598;13.450;2023-12-20T11:21:24;52.60;46.60;61.49;;
37162;Laerm;68342;52.598;13.450;2023-12-20T11:23:50;50.21;46.42;57.16;;
37162;Laerm;68342;52.598;13.450;2023-12-20T11:26:15;50.28;46.29;59.95;;
37162;Laerm;68342;52.598;13.450;2023-12-20T11:28:42;49.60;44.63;58.68;;
37162;Laerm;68342;52.598;13.450;2023-12-20T11:31:07;50.67;45.11;56.42;;
37162;Laerm;68342;52.598;13.450;2023-12-20T11:33:36;50.69;46.28;66.04;;
37162;Laerm;68342;52.598;13.450;2023-12-20T11:36:02;51.10;46.77;59.58;;
37162;Laerm;68342;52.598;13.450;2023-12-20T11:38:29;50.27;45.29;57.54;;
37162;Laerm;68342;52.598;13.450;2023-12-20T11:41:00;49.32;44.65;56.22;;
37162;Laerm;68342;52.598;13.450;2023-12-20T11:43:35;49.50;43.89;64.70;;
37162;Laerm;68342;52.598;13.450;2023-12-20T11:46:04;51.98;46.29;65.89;;
37162;Laerm;68342;52.598;13.450;2023-12-20T11:48:30;51.27;45.64;74.80;;
37162;Laerm;68342;52.598;13.450;2023-12-20T11:50:59;50.59;45.84;57.98;;
37162;Laerm;68342;52.598;13.450;2023-12-20T11:53:24;51.50;47.65;58.83;;
37162;Laerm;68342;52.598;13.450;2023-12-20T11:55:49;52.82;47.49;62.11;;
37162;Laerm;68342;52.598;13.450;2023-12-20T11:58:15;52.08;46.99;60.96;;
37162;Laerm;68342;52.598;13.450;2023-12-20T12:00:41;50.39;45.78;65.20;;
37162;Laerm;68342;52.598;13.450;2023-12-20T12:03:06;51.05;46.08;63.34;;
37162;Laerm;68342;52.598;13.450;2023-12-20T12:05:32;50.50;46.68;59.03;;
37162;Laerm;68342;52.598;13.450;2023-12-20T12:07:58;50.81;47.11;61.02;;
37162;Laerm;68342;52.598;13.450;2023-12-20T12:10:23;50.92;44.96;63.74;;
37162;Laerm;68342;52.598;13.450;2023-12-20T12:12:48;51.45;46.50;68.13;;
37162;Laerm;68342;52.598;13.450;2023-12-20T12:15:14;50.67;45.24;61.42;;
37162;Laerm;68342;52.598;13.450;2023-12-20T12:17:40;51.72;47.28;65.02;;
37162;Laerm;68342;52.598;13.450;2023-12-20T12:20:05;50.83;46.12;58.07;;
37162;Laerm;68342;52.598;13.450;2023-12-20T12:22:31;51.05;47.51;59.97;;
37162;Laerm;68342;52.598;13.450;2023-12-20T12:24:59;50.88;46.55;58.48;;
37162;Laerm;68342;52.598;13.450;2023-12-20T12:27:24;51.19;45.09;65.83;;
37162;Laerm;68342;52.598;13.450;2023-12-20T12:30:02;52.57;48.71;59.35;;
37162;Laerm;68342;52.598;13.450;2023-12-20T12:32:28;53.02;49.46;62.56;;
37162;Laerm;68342;52.598;13.450;2023-12-20T12:34:54;53.31;48.70;68.89;;
37162;Laerm;68342;52.598;13.450;2023-12-20T12:37:19;52.55;48.89;59.97;;
37162;Laerm;68342;52.598;13.450;2023-12-20T12:39:46;53.42;49.09;65.15;;
37162;Laerm;68342;52.598;13.450;2023-12-20T12:42:11;55.04;50.73;66.65;;
37162;Laerm;68342;52.598;13.450;2023-12-20T12:44:36;55.70;50.75;69.95;;
37162;Laerm;68342;52.598;13.450;2023-12-20T12:47:02;55.67;51.83;68.22;;
37162;Laerm;68342;52.598;13.450;2023-12-20T12:49:28;54.67;50.03;63.94;;
37162;Laerm;68342;52.598;13.450;2023-12-20T12:51:54;52.85;49.22;65.24;;
37162;Laerm;68342;52.598;13.450;2023-12-20T12:54:23;51.75;48.62;57.08;;
37162;Laerm;68342;52.598;13.450;2023-12-20T12:56:48;52.04;46.37;58.88;;
37162;Laerm;68342;52.598;13.450;2023-12-20T12:59:14;51.74;47.12;60.37;;
37162;Laerm;68342;52.598;13.450;2023-12-20T13:01:40;52.78;46.83;67.18;;
37162;Laerm;68342;52.598;13.450;2023-12-20T13:04:05;52.48;46.92;62.72;;
37162;Laerm;68342;52.598;13.450;2023-12-20T13:06:35;52.11;47.98;66.26;;
37162;Laerm;68342;52.598;13.450;2023-12-20T13:09:00;54.58;49.23;68.81;;
37162;Laerm;68342;52.598;13.450;2023-12-20T13:11:25;54.02;49.12;67.77;;
37162;Laerm;68342;52.598;13.450;2023-12-20T13:13:50;53.47;48.87;59.98;;
37162;Laerm;68342;52.598;13.450;2023-12-20T13:16:16;56.00;52.41;67.02;;
37162;Laerm;68342;52.598;13.450;2023-12-20T13:18:41;60.76;54.70;79.41;;
37162;Laerm;68342;52.598;13.450;2023-12-20T13:21:07;56.71;52.24;66.50;;
37162;Laerm;68342;52.598;13.450;2023-12-20T13:23:33;57.04;53.61;66.05;;
37162;Laerm;68342;52.598;13.450;2023-12-20T13:26:01;56.40;52.88;66.61;;
37162;Laerm;68342;52.598;13.450;2023-12-20T13:28:26;57.95;51.62;71.99;;